Time;durP1;ratioP1;P1;durP2;ratioP2;P2;SDS_P1;SDS_P2;PMS_P1;PMS_P2;Temp;Humidity;BMP_temperature;BMP_pressure;BME280_temperature;BME280_humidity;BME280_pressure;Samples;Min_cycle;Max_cycle;Signal;HPM_P1;HPM_P2
2022/10/12 00:00:16;;;;;;;9.68;5.13;;;18.00;99.90;;;;;;5047429;28;20068;-72
2022/10/12 00:02:44;;;;;;;6.15;4.05;;;17.90;99.90;;;;;;5072229;28;20474;-69
2022/10/12 00:05:12;;;;;;;7.57;4.70;;;18.00;99.90;;;;;;5050203;28;20566;-70
2022/10/12 00:07:39;;;;;;;7.05;4.93;;;18.00;99.90;;;;;;5066749;28;20225;-74
2022/10/12 00:10:07;;;;;;;6.15;5.43;;;18.00;99.90;;;;;;5051832;28;20502;-70
2022/10/12 00:12:35;;;;;;;8.65;5.22;;;17.90;99.90;;;;;;5073220;28;20054;-74
2022/10/12 00:15:03;;;;;;;7.43;4.57;;;17.80;99.90;;;;;;5055613;28;20045;-69
2022/10/12 00:17:31;;;;;;;8.10;4.95;;;17.90;99.90;;;;;;5044391;28;20056;-78
2022/10/12 00:19:59;;;;;;;9.68;4.97;;;17.90;99.90;;;;;;5045546;28;20049;-70
2022/10/12 00:22:27;;;;;;;6.55;4.88;;;17.90;99.90;;;;;;5062151;28;20055;-70
2022/10/12 00:24:55;;;;;;;5.20;4.07;;;18.00;99.90;;;;;;5067993;28;20510;-71
2022/10/12 00:27:22;;;;;;;6.38;4.80;;;18.00;99.90;;;;;;5043732;28;20135;-72
2022/10/12 00:29:50;;;;;;;8.07;4.60;;;18.00;99.90;;;;;;5073614;28;20044;-74
2022/10/12 00:32:19;;;;;;;5.88;4.47;;;18.00;99.90;;;;;;5077228;28;20397;-69
2022/10/12 00:34:49;;;;;;;13.38;5.28;;;18.00;99.90;;;;;;5071286;28;20127;-70
2022/10/12 00:37:17;;;;;;;5.90;5.00;;;18.00;99.90;;;;;;5078656;28;20047;-70
2022/10/12 00:39:45;;;;;;;7.55;4.57;;;18.00;99.90;;;;;;5090831;28;20086;-69
2022/10/12 00:42:12;;;;;;;6.50;5.55;;;17.90;99.90;;;;;;5090748;28;20597;-72
2022/10/12 00:44:47;;;;;;;10.20;5.63;;;17.90;99.90;;;;;;5065519;28;20041;-79
2022/10/12 00:47:32;;;;;;;7.47;4.60;;;17.90;99.90;;;;;;5072705;28;20060;-86
2022/10/12 00:50:04;;;;;;;7.43;5.30;;;17.90;99.90;;;;;;5079243;28;20089;-71
2022/10/12 00:52:49;;;;;;;7.72;4.70;;;17.90;99.90;;;;;;5065786;28;20303;-70
2022/10/12 00:55:20;;;;;;;5.82;4.97;;;17.90;99.90;;;;;;5067710;28;20143;-70
2022/10/12 00:57:55;;;;;;;8.25;5.80;;;17.90;99.90;;;;;;5080819;28;20044;-71
2022/10/12 01:00:23;;;;;;;7.10;5.13;;;17.80;99.90;;;;;;5085270;28;20064;-70
2022/10/12 01:02:53;;;;;;;6.90;5.07;;;17.80;99.90;;;;;;5077172;28;20045;-72
2022/10/12 01:05:22;;;;;;;8.35;5.97;;;17.80;99.90;;;;;;5070640;28;20145;-77
2022/10/12 01:07:54;;;;;;;9.52;5.63;;;17.80;99.90;;;;;;5047384;28;20131;-70
2022/10/12 01:10:23;;;;;;;8.02;5.00;;;17.80;99.90;;;;;;5069350;28;20052;-73
2022/10/12 01:12:51;;;;;;;8.63;5.80;;;17.90;99.90;;;;;;5085785;28;20100;-72
2022/10/12 01:15:19;;;;;;;8.13;6.28;;;17.90;99.90;;;;;;5097410;28;20046;-71
2022/10/12 01:18:10;;;;;;;7.93;5.00;;;17.90;99.90;;;;;;5069705;28;20063;-69
2022/10/12 01:20:43;;;;;;;6.95;4.90;;;17.90;99.90;;;;;;5063032;28;20055;-69
2022/10/12 01:23:20;;;;;;;7.45;5.35;;;17.90;99.90;;;;;;5069273;28;20052;-68
2022/10/12 01:26:14;;;;;;;7.38;4.80;;;17.90;99.90;;;;;;5068151;28;20055;-69
2022/10/12 01:29:09;;;;;;;10.43;5.32;;;17.90;99.90;;;;;;5050815;28;20066;-70
2022/10/12 01:32:05;;;;;;;9.88;5.38;;;17.90;99.90;;;;;;5067282;28;20052;-69
2022/10/12 01:34:56;;;;;;;9.65;5.40;;;17.90;99.90;;;;;;5050520;28;20075;-70
2022/10/12 01:37:47;;;;;;;7.28;5.45;;;17.90;99.90;;;;;;5051387;28;20060;-70
2022/10/12 01:40:22;;;;;;;6.88;5.55;;;17.90;99.90;;;;;;5068940;28;20037;-70
2022/10/12 01:42:53;;;;;;;9.80;5.35;;;17.90;99.90;;;;;;5049983;28;20717;-69
2022/10/12 01:45:21;;;;;;;9.38;5.32;;;17.90;99.90;;;;;;5067791;28;20416;-70
2022/10/12 01:47:51;;;;;;;7.95;5.43;;;17.90;99.90;;;;;;5051414;28;20041;-70
2022/10/12 01:50:23;;;;;;;9.10;5.60;;;17.90;99.90;;;;;;5051458;28;20154;-70
2022/10/12 01:53:15;;;;;;;7.80;5.55;;;17.90;99.90;;;;;;5067816;28;20499;-74
2022/10/12 01:56:21;;;;;;;6.85;4.80;;;17.90;99.90;;;;;;5067274;28;20064;-69
2022/10/12 01:58:48;;;;;;;7.70;6.72;;;17.90;99.90;;;;;;5055751;28;20386;-69
2022/10/12 02:01:27;;;;;;;9.50;5.90;;;17.90;99.90;;;;;;5067352;28;20045;-72
2022/10/12 02:04:07;;;;;;;9.50;5.43;;;17.90;99.90;;;;;;5068063;28;20056;-69
2022/10/12 02:06:44;;;;;;;7.13;5.55;;;17.90;99.90;;;;;;5051214;28;20102;-72
2022/10/12 02:09:20;;;;;;;10.80;6.72;;;17.90;99.90;;;;;;5069171;28;20139;-70
2022/10/12 02:11:51;;;;;;;14.90;7.30;;;17.90;99.90;;;;;;5071018;28;20654;-70
2022/10/12 02:14:22;;;;;;;12.95;6.45;;;17.90;99.90;;;;;;5071074;28;20083;-69
2022/10/12 02:17:03;;;;;;;10.05;6.47;;;17.90;99.90;;;;;;5071973;28;20513;-70
2022/10/12 02:19:36;;;;;;;11.13;6.20;;;18.00;99.90;;;;;;5071468;28;20171;-69
2022/10/12 02:22:07;;;;;;;7.55;6.10;;;18.00;99.90;;;;;;5071472;28;20079;-70
2022/10/12 02:24:38;;;;;;;9.93;6.72;;;17.90;99.90;;;;;;5039185;28;20057;-70
2022/10/12 02:27:09;;;;;;;8.70;6.20;;;18.00;99.90;;;;;;5070640;28;20383;-71
2022/10/12 02:29:40;;;;;;;12.77;7.50;;;18.00;99.90;;;;;;5054456;28;20062;-70
2022/10/12 02:32:34;;;;;;;8.65;5.53;;;18.00;99.90;;;;;;5038022;28;20049;-71
2022/10/12 02:35:12;;;;;;;9.10;6.82;;;18.00;99.90;;;;;;5054889;28;20145;-69
2022/10/12 02:37:48;;;;;;;15.38;7.75;;;18.00;99.90;;;;;;5055387;28;20052;-69
2022/10/12 02:40:48;;;;;;;9.43;6.85;;;18.10;99.90;;;;;;5071042;28;20867;-71
2022/10/12 02:43:22;;;;;;;10.32;7.40;;;18.10;99.90;;;;;;5038270;28;20056;-69
2022/10/12 02:45:51;;;;;;;8.35;7.10;;;18.10;99.90;;;;;;5071088;28;20115;-69
2022/10/12 02:48:23;;;;;;;11.98;8.20;;;18.00;99.90;;;;;;5071474;28;20105;-74
2022/10/12 02:50:55;;;;;;;9.43;6.22;;;18.00;99.90;;;;;;5070816;28;20055;-69
2022/10/12 02:53:25;;;;;;;6.75;5.70;;;18.10;99.90;;;;;;5070954;28;20083;-72
2022/10/12 02:55:59;;;;;;;11.35;7.18;;;18.00;99.90;;;;;;5053494;28;20053;-72
2022/10/12 02:58:27;;;;;;;9.00;6.55;;;18.00;99.90;;;;;;5070085;28;20117;-69
2022/10/12 03:00:54;;;;;;;8.43;6.90;;;18.00;99.90;;;;;;5036666;28;20087;-73
2022/10/12 03:03:22;;;;;;;9.52;6.80;;;17.90;99.90;;;;;;5070600;28;20397;-69
2022/10/12 03:05:50;;;;;;;12.88;7.82;;;18.00;99.90;;;;;;5070482;28;20056;-76
2022/10/12 03:08:17;;;;;;;9.30;6.93;;;18.00;99.90;;;;;;5065888;28;20773;-72
2022/10/12 03:10:45;;;;;;;9.38;6.80;;;18.00;99.90;;;;;;5052087;28;20049;-70
2022/10/12 03:13:13;;;;;;;9.00;6.25;;;17.90;99.90;;;;;;5069335;28;20471;-70
2022/10/12 03:15:44;;;;;;;10.30;6.63;;;17.90;99.90;;;;;;5069704;28;20700;-75
2022/10/12 03:18:11;;;;;;;9.95;7.00;;;18.00;99.90;;;;;;5069786;28;20044;-75
2022/10/12 03:20:39;;;;;;;12.90;7.10;;;17.90;99.90;;;;;;5069625;28;20052;-69
2022/10/12 03:23:06;;;;;;;10.15;7.63;;;17.90;99.90;;;;;;5071534;28;20132;-78
2022/10/12 03:25:34;;;;;;;9.15;6.15;;;17.90;99.90;;;;;;5069746;28;20051;-69
2022/10/12 03:28:02;;;;;;;9.82;7.68;;;17.90;99.90;;;;;;5053504;28;20061;-77
2022/10/12 03:30:30;;;;;;;10.73;7.47;;;17.90;99.90;;;;;;5052527;28;20505;-71
2022/10/12 03:32:57;;;;;;;10.98;6.72;;;17.90;99.90;;;;;;5068448;28;20547;-71
2022/10/12 03:35:25;;;;;;;11.30;6.78;;;17.90;99.90;;;;;;5069749;28;20123;-70
2022/10/12 03:37:53;;;;;;;6.85;6.15;;;17.90;99.90;;;;;;5069703;28;20063;-75
2022/10/12 03:40:20;;;;;;;9.65;6.60;;;17.90;99.90;;;;;;5068968;28;20158;-69
2022/10/12 03:42:48;;;;;;;8.18;6.22;;;18.00;99.90;;;;;;5070303;28;20955;-69
2022/10/12 03:45:16;;;;;;;9.45;6.53;;;17.90;99.90;;;;;;5069696;28;20048;-69
2022/10/12 03:47:44;;;;;;;6.45;5.28;;;18.00;99.90;;;;;;5053749;28;20071;-70
2022/10/12 03:50:12;;;;;;;8.20;5.32;;;17.90;99.90;;;;;;5053641;28;20089;-72
2022/10/12 03:52:39;;;;;;;6.80;5.38;;;18.00;99.90;;;;;;5069331;28;20411;-72
2022/10/12 03:55:08;;;;;;;8.93;5.55;;;18.00;99.90;;;;;;5052161;28;20677;-84
2022/10/12 03:57:35;;;;;;;7.88;5.28;;;18.00;99.90;;;;;;5048213;28;20056;-71
2022/10/12 04:00:04;;;;;;;7.18;5.25;;;17.90;99.90;;;;;;5050133;28;20403;-70
2022/10/12 04:02:38;;;;;;;10.27;5.45;;;18.00;99.90;;;;;;5053879;28;20053;-71
2022/10/12 04:05:06;;;;;;;9.77;6.53;;;18.00;99.90;;;;;;5052841;28;20080;-70
2022/10/12 04:07:34;;;;;;;6.28;4.97;;;18.00;99.90;;;;;;5053392;28;20041;-69
2022/10/12 04:10:02;;;;;;;7.03;4.70;;;18.00;99.90;;;;;;5074202;28;20529;-69
2022/10/12 04:12:30;;;;;;;9.20;5.60;;;18.00;99.90;;;;;;5053865;28;20107;-69
2022/10/12 04:14:59;;;;;;;6.25;4.85;;;18.00;99.90;;;;;;5088695;28;20051;-71
2022/10/12 04:17:26;;;;;;;7.60;5.30;;;18.00;99.90;;;;;;5096180;28;20032;-71
2022/10/12 04:19:54;;;;;;;12.30;5.68;;;18.00;99.90;;;;;;5102704;28;20066;-72
2022/10/12 04:22:23;;;;;;;6.30;5.65;;;18.00;99.90;;;;;;5078361;28;20089;-70
2022/10/12 04:24:51;;;;;;;8.77;5.93;;;18.00;99.90;;;;;;5074899;28;20156;-73
2022/10/12 04:27:18;;;;;;;8.07;6.50;;;18.00;99.90;;;;;;5071155;28;20056;-69
2022/10/12 04:29:46;;;;;;;8.30;6.22;;;17.90;99.90;;;;;;5090416;28;20031;-73
2022/10/12 04:32:14;;;;;;;7.80;5.65;;;17.90;99.90;;;;;;5091266;28;20189;-70
2022/10/12 04:34:41;;;;;;;9.38;6.25;;;17.90;99.90;;;;;;5060042;28;20824;-74
2022/10/12 04:37:09;;;;;;;8.80;5.68;;;17.90;99.90;;;;;;5083330;28;20063;-73
2022/10/12 04:39:37;;;;;;;9.18;6.75;;;17.90;99.90;;;;;;5083104;28;20399;-69
2022/10/12 04:42:05;;;;;;;8.07;6.55;;;18.00;99.90;;;;;;5088508;28;20040;-71
2022/10/12 04:44:33;;;;;;;9.32;6.03;;;17.90;99.90;;;;;;5072674;28;20127;-73
2022/10/12 04:47:02;;;;;;;8.05;6.15;;;17.90;99.90;;;;;;5073786;28;20043;-74
2022/10/12 04:49:30;;;;;;;13.60;6.75;;;17.90;99.90;;;;;;5061191;28;20047;-74
2022/10/12 04:51:58;;;;;;;8.15;6.95;;;17.90;99.90;;;;;;5094259;28;20142;-70
2022/10/12 04:54:25;;;;;;;7.38;5.25;;;17.90;99.90;;;;;;5078516;28;20134;-69
2022/10/12 04:56:53;;;;;;;7.95;5.47;;;17.90;99.90;;;;;;5094751;28;20039;-70
2022/10/12 04:59:21;;;;;;;7.15;6.20;;;17.90;99.90;;;;;;5079262;28;20040;-78
2022/10/12 05:01:49;;;;;;;8.30;5.65;;;17.90;99.90;;;;;;5100644;28;20105;-74
2022/10/12 05:04:17;;;;;;;7.32;5.80;;;17.90;99.90;;;;;;5091670;28;20093;-81
2022/10/12 05:06:45;;;;;;;8.75;5.43;;;17.90;99.90;;;;;;5098375;28;20050;-75
2022/10/12 05:09:12;;;;;;;9.05;6.05;;;17.90;99.90;;;;;;5098135;28;20106;-70
2022/10/12 05:11:40;;;;;;;9.55;6.50;;;17.80;99.90;;;;;;5100362;28;20458;-69
2022/10/12 05:14:08;;;;;;;9.60;5.93;;;17.80;99.90;;;;;;5104536;28;20046;-69
2022/10/12 05:16:36;;;;;;;9.10;6.65;;;17.80;99.90;;;;;;5078710;28;20169;-77
2022/10/12 05:19:04;;;;;;;10.35;5.93;;;17.80;99.90;;;;;;5054708;28;20102;-71
2022/10/12 05:21:33;;;;;;;10.07;6.45;;;17.80;99.90;;;;;;5052394;28;20063;-70
2022/10/12 05:24:00;;;;;;;10.68;6.90;;;17.80;99.90;;;;;;5070106;28;20041;-69
2022/10/12 05:26:28;;;;;;;11.65;6.75;;;17.90;99.90;;;;;;5065962;28;20504;-69
2022/10/12 05:28:56;;;;;;;10.00;7.22;;;17.90;99.90;;;;;;5064178;28;20056;-69
2022/10/12 05:31:23;;;;;;;10.27;6.38;;;17.90;99.90;;;;;;5051779;28;20059;-71
2022/10/12 05:33:51;;;;;;;10.23;6.80;;;17.90;99.90;;;;;;5068831;28;20040;-69
2022/10/12 05:36:19;;;;;;;10.85;5.95;;;18.00;99.90;;;;;;5068748;28;20071;-70
2022/10/12 05:38:47;;;;;;;10.02;6.78;;;18.20;99.90;;;;;;5052238;28;20132;-70
2022/10/12 05:41:15;;;;;;;9.55;6.55;;;18.40;99.90;;;;;;5068216;28;20044;-75
2022/10/12 05:43:43;;;;;;;8.73;6.68;;;18.60;99.90;;;;;;5055472;28;20049;-75
2022/10/12 05:46:11;;;;;;;12.70;5.55;;;18.90;99.90;;;;;;5057205;28;20052;-70
2022/10/12 05:48:40;;;;;;;9.52;5.97;;;19.20;99.90;;;;;;5056841;28;20925;-69
2022/10/12 05:51:08;;;;;;;7.75;5.45;;;19.30;99.90;;;;;;5072697;28;20049;-72
2022/10/12 05:53:36;;;;;;;9.45;5.93;;;19.50;99.90;;;;;;5056750;28;20044;-69
2022/10/12 05:56:04;;;;;;;7.57;5.57;;;19.70;99.90;;;;;;5040596;28;20386;-71
2022/10/12 05:58:32;;;;;;;8.02;5.82;;;19.90;99.90;;;;;;5072866;28;20040;-69
2022/10/12 06:01:09;;;;;;;9.10;6.38;;;19.90;99.90;;;;;;5073411;28;20044;-71
2022/10/12 06:03:37;;;;;;;7.13;6.03;;;20.10;99.90;;;;;;5039725;28;20048;-70
2022/10/12 06:06:06;;;;;;;7.32;6.03;;;20.10;99.90;;;;;;5056368;28;20049;-70
2022/10/12 06:08:34;;;;;;;6.53;5.00;;;20.00;99.90;;;;;;5056581;28;20146;-73
2022/10/12 06:11:02;;;;;;;6.70;5.55;;;19.90;99.90;;;;;;5056374;28;20047;-70
2022/10/12 06:13:30;;;;;;;7.35;5.63;;;19.90;99.90;;;;;;5072249;28;20068;-70
2022/10/12 06:15:58;;;;;;;8.40;5.03;;;19.80;99.90;;;;;;5072206;28;20478;-70
2022/10/12 06:18:26;;;;;;;10.70;5.85;;;19.70;99.90;;;;;;5073038;28;20486;-77
2022/10/12 06:20:54;;;;;;;6.22;5.00;;;19.70;99.90;;;;;;5074175;28;20045;-70
2022/10/12 06:23:42;;;;;;;6.18;5.13;;;19.60;99.90;;;;;;5072026;28;20498;-72
2022/10/12 06:26:10;;;;;;;6.78;5.65;;;19.60;99.90;;;;;;5038345;28;20775;-69
2022/10/12 06:28:38;;;;;;;9.65;6.40;;;19.80;99.90;;;;;;5055904;28;20052;-69
2022/10/12 06:31:06;;;;;;;8.52;5.07;;;20.20;99.90;;;;;;5055735;28;20048;-69
2022/10/12 06:33:35;;;;;;;8.10;5.45;;;20.80;99.90;;;;;;5072386;28;20136;-70
2022/10/12 06:36:03;;;;;;;7.50;5.35;;;21.30;99.90;;;;;;5072163;28;20119;-70
2022/10/12 06:38:30;;;;;;;6.47;4.50;;;21.80;99.90;;;;;;5071632;28;20063;-77
2022/10/12 06:40:58;;;;;;;7.53;4.80;;;22.20;99.90;;;;;;5071744;28;20045;-70
2022/10/12 06:43:26;;;;;;;6.43;4.10;;;22.50;99.90;;;;;;5072383;28;20112;-70
2022/10/12 06:45:59;;;;;;;5.80;4.25;;;22.70;99.90;;;;;;5056285;28;20044;-69
2022/10/12 06:48:27;;;;;;;6.65;4.40;;;22.90;99.90;;;;;;5073735;28;20051;-69
2022/10/12 06:50:56;;;;;;;11.57;5.75;;;23.10;99.90;;;;;;5056277;28;20494;-70
2022/10/12 06:53:27;;;;;;;8.50;5.82;;;23.20;99.90;;;;;;5072464;28;20098;-74
2022/10/12 06:55:55;;;;;;;7.68;6.22;;;23.30;99.90;;;;;;5077307;28;20036;-70
2022/10/12 06:58:23;;;;;;;8.38;5.85;;;23.50;99.90;;;;;;5092871;28;20036;-70
2022/10/12 07:00:51;;;;;;;7.65;4.70;;;23.60;99.90;;;;;;5075916;28;20071;-69
2022/10/12 07:03:19;;;;;;;7.85;4.57;;;23.70;99.90;;;;;;5092669;28;20044;-70
2022/10/12 07:05:46;;;;;;;5.25;3.45;;;23.70;99.90;;;;;;5056635;28;20055;-73
2022/10/12 07:08:14;;;;;;;7.50;4.40;;;23.80;99.90;;;;;;5088111;28;20525;-80
2022/10/12 07:10:42;;;;;;;7.03;4.22;;;23.70;99.90;;;;;;5055227;28;20113;-73
2022/10/12 07:13:09;;;;;;;4.60;3.63;;;23.80;99.90;;;;;;5074325;28;20571;-73
2022/10/12 07:15:37;;;;;;;6.45;3.55;;;23.90;99.90;;;;;;5091577;28;20058;-70
2022/10/12 07:18:04;;;;;;;6.65;3.55;;;23.90;99.90;;;;;;5091682;28;20051;-69
2022/10/12 07:20:32;;;;;;;5.40;3.50;;;24.00;99.90;;;;;;5093669;28;20130;-70
2022/10/12 07:22:59;;;;;;;7.65;3.97;;;24.00;99.90;;;;;;5092196;28;20394;-70
2022/10/12 07:25:27;;;;;;;4.75;3.83;;;24.10;99.90;;;;;;5092890;28;20583;-70
2022/10/12 07:27:55;;;;;;;5.53;3.10;;;24.10;99.90;;;;;;5090923;28;20052;-71
2022/10/12 07:30:23;;;;;;;5.43;3.25;;;24.20;99.90;;;;;;5074572;28;20093;-74
2022/10/12 07:32:53;;;;;;;5.28;3.85;;;24.30;99.90;;;;;;5074592;28;20126;-72
2022/10/12 07:35:21;;;;;;;5.57;3.75;;;24.40;99.90;;;;;;5057375;28;20048;-70
2022/10/12 07:37:49;;;;;;;5.32;4.03;;;24.30;99.90;;;;;;5092254;28;20048;-71
2022/10/12 07:40:17;;;;;;;7.80;4.00;;;24.00;99.90;;;;;;5090001;28;20441;-69
2022/10/12 07:42:44;;;;;;;8.82;4.20;;;23.80;99.90;;;;;;5073799;28;20182;-72
2022/10/12 07:45:32;;;;;;;6.93;4.45;;;23.60;99.90;;;;;;5090436;28;20047;-76
2022/10/12 07:48:00;;;;;;;5.43;3.70;;;23.40;99.90;;;;;;5070452;28;20062;-69
2022/10/12 07:50:28;;;;;;;5.60;3.75;;;23.40;99.90;;;;;;5092572;28;20040;-69
2022/10/12 07:52:56;;;;;;;6.22;3.85;;;23.50;99.90;;;;;;5091325;28;20104;-70
2022/10/12 07:55:24;;;;;;;9.35;4.30;;;23.70;99.90;;;;;;5091311;28;20127;-75
2022/10/12 07:57:51;;;;;;;5.85;3.13;;;23.90;99.90;;;;;;5057681;28;20052;-70
2022/10/12 08:00:21;;;;;;;5.20;3.42;;;24.10;99.90;;;;;;5091152;28;20135;-69
2022/10/12 08:02:48;;;;;;;7.03;3.75;;;24.20;99.90;;;;;;5091325;28;20062;-69
2022/10/12 08:05:19;;;;;;;5.25;3.42;;;24.30;99.90;;;;;;5073265;28;20424;-73
2022/10/12 08:07:48;;;;;;;6.60;3.67;;;24.20;99.90;;;;;;5071259;28;20813;-77
2022/10/12 08:10:17;;;;;;;5.70;3.10;;;24.10;99.90;;;;;;5073570;28;20060;-69
2022/10/12 08:12:45;;;;;;;6.40;2.90;;;23.90;99.90;;;;;;5057746;28;20063;-69
2022/10/12 08:15:16;;;;;;;6.05;2.92;;;23.80;99.90;;;;;;5057604;28;20148;-74
2022/10/12 08:17:43;;;;;;;5.65;2.40;;;23.70;99.90;;;;;;5074820;28;20044;-69
2022/10/12 08:20:11;;;;;;;3.88;2.40;;;23.80;99.90;;;;;;5091186;28;20040;-69
2022/10/12 08:22:39;;;;;;;6.75;2.95;;;23.90;99.90;;;;;;5073978;28;20044;-69
2022/10/12 08:25:07;;;;;;;3.63;2.67;;;24.20;99.90;;;;;;5090151;28;20066;-70
2022/10/12 08:27:37;;;;;;;3.03;1.98;;;24.30;99.90;;;;;;5073229;28;20807;-77
2022/10/12 08:30:08;;;;;;;4.35;2.67;;;24.40;99.90;;;;;;5073195;28;20052;-74
2022/10/12 08:32:36;;;;;;;6.47;3.20;;;24.50;99.90;;;;;;5073767;28;20596;-75
2022/10/12 08:35:05;;;;;;;3.92;2.42;;;24.40;99.90;;;;;;5091621;28;20037;-70
2022/10/12 08:37:32;;;;;;;7.40;2.53;;;24.30;99.90;;;;;;5089241;28;20047;-73
2022/10/12 08:40:00;;;;;;;7.00;3.15;;;24.10;99.90;;;;;;5090676;28;20121;-70
2022/10/12 08:42:32;;;;;;;4.07;3.03;;;23.80;99.90;;;;;;5090613;28;20484;-69
2022/10/12 08:45:21;;;;;;;4.25;3.20;;;23.80;99.90;;;;;;5073251;28;20047;-69
2022/10/12 08:47:57;;;;;;;4.30;2.58;;;23.90;99.90;;;;;;5056980;28;20056;-69
2022/10/12 08:50:39;;;;;;;4.38;3.00;;;24.20;99.90;;;;;;5089969;28;20059;-69
2022/10/12 08:53:24;;;;;;;4.70;2.58;;;24.20;99.90;;;;;;5091104;28;20508;-69
2022/10/12 08:55:52;;;;;;;5.60;2.95;;;24.20;99.90;;;;;;5073590;28;20052;-71
2022/10/12 08:58:29;;;;;;;5.95;2.67;;;23.90;99.90;;;;;;5073522;28;20321;-71
2022/10/12 09:01:11;;;;;;;4.07;2.95;;;23.60;99.90;;;;;;5072877;28;20054;-69
2022/10/12 09:04:18;;;;;;;3.90;2.60;;;23.40;99.90;;;;;;5090851;28;20082;-70
2022/10/12 09:06:55;;;;;;;5.07;2.30;;;23.40;99.90;;;;;;5089939;28;20131;-71
2022/10/12 09:09:53;;;;;;;4.05;2.78;;;23.60;99.90;;;;;;5073572;28;20078;-70
2022/10/12 09:12:43;;;;;;;5.28;3.03;;;23.70;99.90;;;;;;5089591;28;20048;-71
2022/10/12 09:15:21;;;;;;;4.50;2.75;;;23.80;99.90;;;;;;5072624;28;20138;-69
2022/10/12 09:17:58;;;;;;;4.10;2.88;;;23.80;99.90;;;;;;5088965;28;20480;-69
2022/10/12 09:20:56;;;;;;;6.47;3.15;;;23.90;99.90;;;;;;5072722;28;20439;-70
2022/10/12 09:23:37;;;;;;;3.78;2.67;;;24.00;99.90;;;;;;5071540;28;20051;-70
2022/10/12 09:26:38;;;;;;;6.07;2.80;;;24.00;99.90;;;;;;5069481;28;20247;-69
2022/10/12 09:29:31;;;;;;;4.82;3.53;;;23.90;99.90;;;;;;5053134;28;20052;-81
2022/10/12 09:32:07;;;;;;;4.88;3.42;;;23.70;99.90;;;;;;5046125;28;20049;-72
2022/10/12 09:34:35;;;;;;;6.70;3.92;;;23.40;99.90;;;;;;5052651;28;20506;-70
2022/10/12 09:37:04;;;;;;;5.22;3.70;;;23.10;99.90;;;;;;5068907;28;20044;-69
2022/10/12 09:39:36;;;;;;;6.10;3.70;;;23.10;99.90;;;;;;5070530;28;20044;-70
2022/10/12 09:42:04;;;;;;;8.70;4.35;;;23.20;99.90;;;;;;5052827;28;20097;-69
2022/10/12 09:44:35;;;;;;;5.90;4.07;;;23.40;99.90;;;;;;5053031;28;20078;-70
2022/10/12 09:47:23;;;;;;;5.07;3.88;;;23.70;99.90;;;;;;5053353;28;20802;-73
2022/10/12 09:49:57;;;;;;;4.60;3.70;;;24.10;99.90;;;;;;5050782;28;20509;-72
2022/10/12 09:52:40;;;;;;;4.55;3.15;;;24.10;99.90;;;;;;5070646;28;20046;-70
2022/10/12 09:55:13;;;;;;;4.60;2.85;;;24.10;99.90;;;;;;5052380;28;20052;-89
2022/10/12 09:57:50;;;;;;;5.03;3.10;;;24.00;99.90;;;;;;5068908;28;20048;-70
2022/10/12 10:00:31;;;;;;;4.53;2.95;;;23.70;99.90;;;;;;5068922;28;20044;-71
2022/10/12 10:03:00;;;;;;;7.15;3.38;;;23.60;99.90;;;;;;5069066;28;20136;-70
2022/10/12 10:05:32;;;;;;;4.70;3.58;;;23.70;99.90;;;;;;5065324;28;20534;-83
2022/10/12 10:08:22;;;;;;;4.85;3.17;;;23.90;99.90;;;;;;5064185;28;20040;-72
2022/10/12 10:10:58;;;;;;;4.53;3.47;;;23.80;99.90;;;;;;5068516;28;20130;-69
2022/10/12 10:13:29;;;;;;;5.63;3.63;;;23.80;99.90;;;;;;5051563;28;20249;-70
2022/10/12 10:16:08;;;;;;;4.68;3.17;;;23.70;99.90;;;;;;5065999;28;20102;-70
2022/10/12 10:19:00;;;;;;;4.55;3.22;;;23.50;99.90;;;;;;5031485;28;20562;-70
2022/10/12 10:21:33;;;;;;;4.43;3.42;;;23.40;99.90;;;;;;5067862;28;20056;-69
2022/10/12 10:24:06;;;;;;;8.38;4.20;;;23.40;99.90;;;;;;5051691;28;20143;-69
2022/10/12 10:27:25;;;;;;;4.65;3.17;;;23.50;99.90;;;;;;5067551;28;20065;-73
2022/10/12 10:30:07;;;;;;;5.45;2.85;;;23.80;99.90;;;;;;4959750;28;20058;-70
2022/10/12 10:32:36;;;;;;;4.55;3.50;;;24.00;99.90;;;;;;5088219;28;20051;-70
2022/10/12 10:35:06;;;;;;;6.50;3.75;;;24.20;99.90;;;;;;5071398;28;20036;-69
2022/10/12 10:37:34;;;;;;;5.93;3.58;;;24.50;99.90;;;;;;5071480;28;20055;-71
2022/10/12 10:40:03;;;;;;;5.80;3.90;;;24.40;99.90;;;;;;5054862;28;20111;-80
2022/10/12 10:42:33;;;;;;;6.22;3.90;;;24.40;99.90;;;;;;5054927;28;20343;-70
2022/10/12 10:45:07;;;;;;;6.32;3.40;;;24.40;99.90;;;;;;5072993;28;20079;-71
2022/10/12 10:47:45;;;;;;;6.07;3.50;;;24.50;99.90;;;;;;5071277;28;20048;-70
2022/10/12 10:50:40;;;;;;;6.00;3.67;;;24.50;99.90;;;;;;5070954;28;20060;-74
2022/10/12 10:53:17;;;;;;;7.13;4.43;;;24.40;99.90;;;;;;5071367;28;20119;-87
2022/10/12 10:55:51;;;;;;;4.65;3.38;;;24.20;99.90;;;;;;5070441;28;20048;-71
2022/10/12 10:58:44;;;;;;;5.80;4.05;;;23.90;99.90;;;;;;5069995;28;20048;-69
2022/10/12 11:01:25;;;;;;;5.60;4.03;;;23.70;99.90;;;;;;5071196;28;20490;-73
2022/10/12 11:04:12;;;;;;;6.35;3.72;;;23.50;99.90;;;;;;5070850;28;20052;-69
2022/10/12 11:06:49;;;;;;;4.85;3.30;;;23.50;99.90;;;;;;5071328;28;20048;-71
2022/10/12 11:09:21;;;;;;;4.97;3.67;;;23.70;99.90;;;;;;5036939;28;20059;-70
2022/10/12 11:12:06;;;;;;;4.60;3.70;;;23.90;99.90;;;;;;5071916;28;20040;-69
2022/10/12 11:14:40;;;;;;;5.95;4.13;;;24.10;99.90;;;;;;5070789;28;20040;-72
2022/10/12 11:17:23;;;;;;;5.53;3.88;;;24.10;99.90;;;;;;5070088;28;20564;-77
2022/10/12 11:19:55;;;;;;;6.03;4.45;;;24.10;99.90;;;;;;5069898;28;20040;-70
2022/10/12 11:22:48;;;;;;;6.45;4.30;;;24.00;99.90;;;;;;5070047;28;20467;-70
2022/10/12 11:25:29;;;;;;;5.75;3.70;;;23.80;99.90;;;;;;5071423;28;20082;-71
2022/10/12 11:27:57;;;;;;;5.70;4.18;;;23.70;99.90;;;;;;5037803;28;20091;-69
2022/10/12 11:30:35;;;;;;;8.10;3.63;;;23.50;99.90;;;;;;5037435;28;20110;-70
2022/10/12 11:33:26;;;;;;;6.25;3.50;;;23.40;99.90;;;;;;5036731;28;20673;-70
2022/10/12 11:35:57;;;;;;;5.78;3.70;;;23.30;99.90;;;;;;5069892;28;20157;-73
2022/10/12 11:38:34;;;;;;;6.00;3.90;;;23.20;99.90;;;;;;5037293;28;20106;-72
2022/10/12 11:41:29;;;;;;;4.43;3.45;;;23.10;99.90;;;;;;5053335;28;20692;-70
2022/10/12 11:44:12;;;;;;;5.03;3.40;;;23.20;99.90;;;;;;5069796;28;20553;-72
2022/10/12 11:46:55;;;;;;;5.40;3.58;;;23.20;99.90;;;;;;5052648;28;20080;-70
2022/10/12 11:49:48;;;;;;;5.55;3.72;;;23.40;99.90;;;;;;5070881;28;20044;-70
2022/10/12 11:52:18;;;;;;;4.93;3.75;;;23.60;99.90;;;;;;5069698;28;20071;-72
2022/10/12 11:55:06;;;;;;;4.50;2.80;;;23.80;99.90;;;;;;5069495;28;20063;-72
2022/10/12 11:57:36;;;;;;;3.40;2.42;;;23.90;99.90;;;;;;5087978;28;20205;-81
2022/10/12 12:00:15;;;;;;;4.45;2.65;;;23.90;99.90;;;;;;5096067;28;20401;-84
2022/10/12 12:02:54;;;;;;;6.10;2.63;;;23.90;99.90;;;;;;5061483;28;20075;-70
2022/10/12 12:05:22;;;;;;;5.60;2.75;;;23.90;99.90;;;;;;5101582;28;20397;-80
2022/10/12 12:07:55;;;;;;;5.35;2.35;;;23.90;99.90;;;;;;5056332;28;20048;-73
2022/10/12 12:10:26;;;;;;;8.32;3.10;;;24.00;99.90;;;;;;5099079;28;20666;-72
2022/10/12 12:13:21;;;;;;;4.60;3.42;;;24.00;99.90;;;;;;5078848;28;20754;-70
2022/10/12 12:15:52;;;;;;;5.82;3.55;;;24.00;99.90;;;;;;5055423;28;20050;-72
2022/10/12 12:18:25;;;;;;;6.25;3.88;;;24.10;99.90;;;;;;5104976;28;20038;-82
2022/10/12 12:21:01;;;;;;;5.38;3.40;;;24.10;99.90;;;;;;5078484;28;20431;-72
2022/10/12 12:23:51;;;;;;;5.90;3.58;;;24.10;99.90;;;;;;5087049;28;20047;-75
2022/10/12 12:26:22;;;;;;;4.70;3.08;;;24.10;99.90;;;;;;5091953;28;20053;-76
2022/10/12 12:29:06;;;;;;;6.32;4.50;;;24.10;99.90;;;;;;5073210;28;20547;-74
2022/10/12 12:31:34;;;;;;;4.88;3.00;;;24.20;99.90;;;;;;5067548;28;20040;-72
2022/10/12 12:34:15;;;;;;;5.38;3.80;;;24.20;99.90;;;;;;5069848;28;20051;-72
2022/10/12 12:36:48;;;;;;;6.82;3.90;;;24.20;99.90;;;;;;5053630;28;20131;-73
2022/10/12 12:39:31;;;;;;;5.05;3.30;;;24.10;99.90;;;;;;5068008;28;20102;-73
2022/10/12 12:42:04;;;;;;;6.45;3.67;;;24.10;99.90;;;;;;5076058;28;20427;-72
2022/10/12 12:44:39;;;;;;;5.75;3.95;;;24.00;99.90;;;;;;5089473;28;20057;-72
2022/10/12 12:47:10;;;;;;;;;;;23.90;99.90;;;;;;5056083;28;20052;-84
2022/10/12 12:50:01;;;;;;;6.97;4.07;;;23.90;99.90;;;;;;5055435;28;19955;-74
2022/10/12 12:52:37;;;;;;;7.18;2.97;;;23.90;99.90;;;;;;5068893;28;20036;-74
2022/10/12 12:55:34;;;;;;;7.82;3.85;;;23.80;99.90;;;;;;5068070;28;20510;-72
2022/10/12 12:58:40;;;;;;;5.30;3.20;;;23.60;99.90;;;;;;5039836;28;20076;-74
2022/10/12 13:01:45;;;;;;;5.35;4.05;;;23.50;99.90;;;;;;5051701;28;20063;-75
2022/10/12 13:04:49;;;;;;;4.85;3.88;;;23.50;99.90;;;;;;5064344;28;20127;-72
2022/10/12 13:07:35;;;;;;;5.03;3.50;;;23.40;99.90;;;;;;5029120;28;20517;-72
2022/10/12 13:10:08;;;;;;;6.07;3.15;;;23.30;99.90;;;;;;5073439;28;20045;-74
2022/10/12 13:12:54;;;;;;;7.53;4.43;;;23.30;99.90;;;;;;5059234;28;20049;-72
2022/10/12 13:15:44;;;;;;;8.95;3.65;;;23.20;99.90;;;;;;5071518;28;20059;-79
2022/10/12 13:18:27;;;;;;;6.50;4.07;;;23.20;99.90;;;;;;5042008;28;20048;-74